sensor_id;sensor_type;location;lat;lon;timestamp;pressure;altitude;pressure_sealevel;temperature;humidity
12763;BME280;6445;52.490;13.378;2024-03-22T00:00:32;74935.69;;;-146.10;100.00
12763;BME280;6445;52.490;13.378;2024-03-22T00:02:57;74635.91;;;-146.10;100.00
12763;BME280;6445;52.490;13.378;2024-03-22T00:05:22;73511.41;;;-146.10;100.00
12763;BME280;6445;52.490;13.378;2024-03-22T00:07:48;73258.00;;;-146.10;100.00
12763;BME280;6445;52.490;13.378;2024-03-22T00:10:13;71888.59;;;-146.10;100.00
12763;BME280;6445;52.490;13.378;2024-03-22T00:12:39;71804.16;;;-146.10;100.00
12763;BME280;6445;52.490;13.378;2024-03-22T00:15:05;69896.66;;;-146.10;100.00
12763;BME280;6445;52.490;13.378;2024-03-22T00:17:30;69673.63;;;-146.10;100.00
12763;BME280;6445;52.490;13.378;2024-03-22T00:19:56;68996.50;;;-146.10;100.00
12763;BME280;6445;52.490;13.378;2024-03-22T00:22:21;68010.16;;;-146.10;100.00
12763;BME280;6445;52.490;13.378;2024-03-22T00:24:47;67524.13;;;-146.10;100.00
12763;BME280;6445;52.490;13.378;2024-03-22T00:27:12;66797.19;;;-146.10;100.00
12763;BME280;6445;52.490;13.378;2024-03-22T00:29:37;66708.84;;;-146.10;100.00
12763;BME280;6445;52.490;13.378;2024-03-22T00:32:03;66783.13;;;-146.10;100.00
12763;BME280;6445;52.490;13.378;2024-03-22T00:34:29;66453.84;;;-146.10;100.00
12763;BME280;6445;52.490;13.378;2024-03-22T00:36:54;66363.47;;;-146.10;100.00
12763;BME280;6445;52.490;13.378;2024-03-22T00:39:19;66684.72;;;-146.10;100.00
12763;BME280;6445;52.490;13.378;2024-03-22T00:41:44;68102.56;;;-146.10;100.00
12763;BME280;6445;52.490;13.378;2024-03-22T00:44:09;69587.22;;;-146.10;100.00
12763;BME280;6445;52.490;13.378;2024-03-22T00:46:35;68303.44;;;-146.10;100.00
12763;BME280;6445;52.490;13.378;2024-03-22T00:49:01;67566.31;;;-146.10;100.00
12763;BME280;6445;52.490;13.378;2024-03-22T00:51:26;68634.88;;;-146.10;100.00
12763;BME280;6445;52.490;13.378;2024-03-22T00:53:52;67433.75;;;-146.10;100.00
12763;BME280;6445;52.490;13.378;2024-03-22T00:56:17;71020.16;;;-146.10;100.00
12763;BME280;6445;52.490;13.378;2024-03-22T00:58:42;66475.91;;;-146.10;100.00
12763;BME280;6445;52.490;13.378;2024-03-22T01:01:08;66313.28;;;-146.10;100.00
12763;BME280;6445;52.490;13.378;2024-03-22T01:03:33;66389.59;;;-146.10;100.00
12763;BME280;6445;52.490;13.378;2024-03-22T01:05:58;61579.91;;;-146.10;100.00
12763;BME280;6445;52.490;13.378;2024-03-22T01:08:23;55085.94;;;-146.10;100.00
12763;BME280;6445;52.490;13.378;2024-03-22T01:10:49;51531.88;;;-146.10;100.00
12763;BME280;6445;52.490;13.378;2024-03-22T01:13:14;47477.44;;;-146.10;100.00
12763;BME280;6445;52.490;13.378;2024-03-22T01:15:40;36255.50;;;-146.10;100.00
12763;BME280;6445;52.490;13.378;2024-03-22T01:18:05;34036.47;;;-146.10;100.00
12763;BME280;6445;52.490;13.378;2024-03-22T01:20:30;31679.38;;;-146.10;100.00
12763;BME280;6445;52.490;13.378;2024-03-22T01:22:55;29777.22;;;-146.10;100.00
12763;BME280;6445;52.490;13.378;2024-03-22T01:25:21;27056.91;;;-146.10;100.00
12763;BME280;6445;52.490;13.378;2024-03-22T01:27:46;24000.78;;;-146.10;100.00
12763;BME280;6445;52.490;13.378;2024-03-22T01:30:11;20917.31;;;-146.10;100.00
12763;BME280;6445;52.490;13.378;2024-03-22T01:32:37;20208.81;;;-146.10;100.00
12763;BME280;6445;52.490;13.378;2024-03-22T01:35:02;19369.53;;;-146.10;100.00
12763;BME280;6445;52.490;13.378;2024-03-22T01:37:27;17445.59;;;-146.10;100.00
12763;BME280;6445;52.490;13.378;2024-03-22T01:39:53;15197.56;;;-146.10;100.00
12763;BME280;6445;52.490;13.378;2024-03-22T01:42:18;13673.88;;;-146.10;100.00
12763;BME280;6445;52.490;13.378;2024-03-22T01:44:43;13014.25;;;-146.10;100.00
12763;BME280;6445;52.490;13.378;2024-03-22T01:47:08;11639.91;;;-146.10;100.00
12763;BME280;6445;52.490;13.378;2024-03-22T01:49:34;11024.16;;;-146.10;100.00
12763;BME280;6445;52.490;13.378;2024-03-22T01:52:00;10729.22;;;-146.10;100.00
12763;BME280;6445;52.490;13.378;2024-03-22T01:54:25;9387.31;;;-146.10;100.00
12763;BME280;6445;52.490;13.378;2024-03-22T01:56:50;9990.91;;;-146.10;100.00
12763;BME280;6445;52.490;13.378;2024-03-22T01:59:16;8752.16;;;-146.10;100.00
12763;BME280;6445;52.490;13.378;2024-03-22T02:01:42;7877.78;;;-146.10;100.00
12763;BME280;6445;52.490;13.378;2024-03-22T02:04:08;7994.47;;;-146.10;100.00
12763;BME280;6445;52.490;13.378;2024-03-22T02:06:33;7887.66;;;-146.10;100.00
12763;BME280;6445;52.490;13.378;2024-03-22T02:08:58;7011.47;;;-146.10;100.00
12763;BME280;6445;52.490;13.378;2024-03-22T02:11:25;6590.25;;;-146.10;100.00
12763;BME280;6445;52.490;13.378;2024-03-22T02:13:50;7286.38;;;-146.10;100.00
12763;BME280;6445;52.490;13.378;2024-03-22T02:16:16;8229.88;;;-146.10;100.00
12763;BME280;6445;52.490;13.378;2024-03-22T02:18:42;8020.19;;;-146.10;100.00
12763;BME280;6445;52.490;13.378;2024-03-22T02:21:07;8089.44;;;-146.10;100.00
12763;BME280;6445;52.490;13.378;2024-03-22T02:23:36;7780.84;;;-146.10;100.00
12763;BME280;6445;52.490;13.378;2024-03-22T02:26:02;7596.91;;;-146.10;100.00
12763;BME280;6445;52.490;13.378;2024-03-22T02:28:29;7939.09;;;-146.10;100.00
12763;BME280;6445;52.490;13.378;2024-03-22T02:30:54;8785.81;;;-146.10;100.00
12763;BME280;6445;52.490;13.378;2024-03-22T02:33:19;7737.31;;;-146.10;100.00
12763;BME280;6445;52.490;13.378;2024-03-22T02:35:48;6345.06;;;-146.10;100.00
12763;BME280;6445;52.490;13.378;2024-03-22T02:38:14;7745.25;;;-146.10;100.00
12763;BME280;6445;52.490;13.378;2024-03-22T02:40:40;6710.88;;;-146.10;100.00
12763;BME280;6445;52.490;13.378;2024-03-22T02:43:05;8164.59;;;-146.10;100.00
12763;BME280;6445;52.490;13.378;2024-03-22T02:45:31;6797.91;;;-146.10;100.00
12763;BME280;6445;52.490;13.378;2024-03-22T02:47:57;6813.72;;;-146.10;100.00
12763;BME280;6445;52.490;13.378;2024-03-22T02:50:22;6078.16;;;-146.10;100.00
12763;BME280;6445;52.490;13.378;2024-03-22T02:52:50;5394.13;;;-146.10;100.00
12763;BME280;6445;52.490;13.378;2024-03-22T02:55:16;5226.09;;;-146.10;100.00
12763;BME280;6445;52.490;13.378;2024-03-22T02:57:41;5093.66;;;-146.10;100.00
12763;BME280;6445;52.490;13.378;2024-03-22T03:00:07;4407.81;;;-146.10;100.00
12763;BME280;6445;52.490;13.378;2024-03-22T03:02:33;4729.97;;;-146.10;100.00
12763;BME280;6445;52.490;13.378;2024-03-22T03:04:58;4332.72;;;-146.10;100.00
12763;BME280;6445;52.490;13.378;2024-03-22T03:07:24;4145.00;;;-146.10;100.00
12763;BME280;6445;52.490;13.378;2024-03-22T03:09:49;3961.22;;;-146.10;100.00
12763;BME280;6445;52.490;13.378;2024-03-22T03:12:15;3955.28;;;-146.10;100.00
12763;BME280;6445;52.490;13.378;2024-03-22T03:14:40;4182.53;;;-146.10;100.00
12763;BME280;6445;52.490;13.378;2024-03-22T03:17:05;4461.19;;;-146.10;100.00
12763;BME280;6445;52.490;13.378;2024-03-22T03:19:30;4241.81;;;-146.10;100.00
12763;BME280;6445;52.490;13.378;2024-03-22T03:21:56;4172.66;;;-146.10;100.00
12763;BME280;6445;52.490;13.378;2024-03-22T03:24:21;4554.06;;;-146.10;100.00
12763;BME280;6445;52.490;13.378;2024-03-22T03:26:46;4672.66;;;-146.10;100.00
12763;BME280;6445;52.490;13.378;2024-03-22T03:29:11;4202.28;;;-146.10;100.00
12763;BME280;6445;52.490;13.378;2024-03-22T03:31:37;4346.56;;;-146.10;100.00
12763;BME280;6445;52.490;13.378;2024-03-22T03:34:02;4953.31;;;-146.10;100.00
12763;BME280;6445;52.490;13.378;2024-03-22T03:36:27;4318.88;;;-146.10;100.00
12763;BME280;6445;52.490;13.378;2024-03-22T03:38:52;5103.53;;;-146.10;100.00
12763;BME280;6445;52.490;13.378;2024-03-22T03:41:18;6505.22;;;-146.10;100.00
12763;BME280;6445;52.490;13.378;2024-03-22T03:43:43;6309.47;;;-146.10;100.00
12763;BME280;6445;52.490;13.378;2024-03-22T03:46:08;7703.69;;;-146.10;100.00
12763;BME280;6445;52.490;13.378;2024-03-22T03:48:33;7820.41;;;-146.10;100.00
12763;BME280;6445;52.490;13.378;2024-03-22T03:50:59;8322.84;;;-146.10;100.00
12763;BME280;6445;52.490;13.378;2024-03-22T03:53:28;8328.78;;;-146.10;100.00
12763;BME280;6445;52.490;13.378;2024-03-22T03:55:53;8989.59;;;-146.10;100.00
12763;BME280;6445;52.490;13.378;2024-03-22T03:58:18;9128.09;;;-146.10;100.00
12763;BME280;6445;52.490;13.378;2024-03-22T04:00:43;9692.06;;;-146.10;100.00
12763;BME280;6445;52.490;13.378;2024-03-22T04:03:09;10250.19;;;-146.10;100.00
12763;BME280;6445;52.490;13.378;2024-03-22T04:05:34;9579.28;;;-146.10;100.00
12763;BME280;6445;52.490;13.378;2024-03-22T04:08:00;9476.38;;;-146.10;100.00
12763;BME280;6445;52.490;13.378;2024-03-22T04:10:25;10683.69;;;-146.10;100.00
12763;BME280;6445;52.490;13.378;2024-03-22T04:12:50;11059.81;;;-146.10;100.00
12763;BME280;6445;52.490;13.378;2024-03-22T04:15:15;11540.91;;;-146.10;100.00
12763;BME280;6445;52.490;13.378;2024-03-22T04:17:41;12095.31;;;-146.10;100.00
12763;BME280;6445;52.490;13.378;2024-03-22T04:20:06;12447.81;;;-146.10;100.00
12763;BME280;6445;52.490;13.378;2024-03-22T04:22:32;11016.25;;;-146.10;100.00
12763;BME280;6445;52.490;13.378;2024-03-22T04:24:57;11513.19;;;-146.10;100.00
12763;BME280;6445;52.490;13.378;2024-03-22T04:27:22;12426.03;;;-146.10;100.00
12763;BME280;6445;52.490;13.378;2024-03-22T04:29:47;12808.25;;;-146.10;100.00
12763;BME280;6445;52.490;13.378;2024-03-22T04:32:13;13075.66;;;-146.10;100.00
12763;BME280;6445;52.490;13.378;2024-03-22T04:34:42;13606.50;;;-146.10;100.00
12763;BME280;6445;52.490;13.378;2024-03-22T04:37:07;13998.78;;;-146.10;100.00
12763;BME280;6445;52.490;13.378;2024-03-22T04:39:32;14644.69;;;-146.10;100.00
12763;BME280;6445;52.490;13.378;2024-03-22T04:41:57;14941.94;;;-146.10;100.00
12763;BME280;6445;52.490;13.378;2024-03-22T04:44:22;15100.47;;;-146.10;100.00
12763;BME280;6445;52.490;13.378;2024-03-22T04:46:48;16299.63;;;-146.10;100.00
12763;BME280;6445;52.490;13.378;2024-03-22T04:49:13;17356.34;;;-146.10;100.00
12763;BME280;6445;52.490;13.378;2024-03-22T04:51:38;17663.72;;;-146.10;100.00
12763;BME280;6445;52.490;13.378;2024-03-22T04:54:04;18407.44;;;-146.10;100.00
12763;BME280;6445;52.490;13.378;2024-03-22T04:56:29;18407.44;;;-146.10;100.00
12763;BME280;6445;52.490;13.378;2024-03-22T04:58:54;19756.41;;;-146.10;100.00
12763;BME280;6445;52.490;13.378;2024-03-22T05:01:20;21455.19;;;-146.10;100.00
12763;BME280;6445;52.490;13.378;2024-03-22T05:03:45;21201.13;;;-146.10;100.00
12763;BME280;6445;52.490;13.378;2024-03-22T05:06:11;22471.66;;;-146.10;100.00
12763;BME280;6445;52.490;13.378;2024-03-22T05:08:36;23996.81;;;-146.10;100.00
12763;BME280;6445;52.490;13.378;2024-03-22T05:11:01;23996.81;;;-146.10;100.00
12763;BME280;6445;52.490;13.378;2024-03-22T05:13:26;24251.06;;;-146.10;100.00
12763;BME280;6445;52.490;13.378;2024-03-22T05:15:52;24453.69;;;-146.10;100.00
12763;BME280;6445;52.490;13.378;2024-03-22T05:18:17;27551.91;;;-146.10;100.00
12763;BME280;6445;52.490;13.378;2024-03-22T05:20:42;28385.00;;;-146.10;100.00
12763;BME280;6445;52.490;13.378;2024-03-22T05:23:07;26907.81;;;-146.10;100.00
12763;BME280;6445;52.490;13.378;2024-03-22T05:25:33;27194.06;;;-146.10;100.00
12763;BME280;6445;52.490;13.378;2024-03-22T05:27:58;28558.00;;;-146.10;100.00
12763;BME280;6445;52.490;13.378;2024-03-22T05:30:23;29978.13;;;-146.10;100.00
12763;BME280;6445;52.490;13.378;2024-03-22T05:32:48;30612.78;;;-146.10;100.00
12763;BME280;6445;52.490;13.378;2024-03-22T05:35:15;30582.94;;;-146.10;100.00
12763;BME280;6445;52.490;13.378;2024-03-22T05:37:40;32959.28;;;-146.10;100.00
12763;BME280;6445;52.490;13.378;2024-03-22T05:40:06;34388.97;;;-146.10;100.00
12763;BME280;6445;52.490;13.378;2024-03-22T05:42:31;34319.25;;;-146.10;100.00
12763;BME280;6445;52.490;13.378;2024-03-22T05:44:57;35629.91;;;-146.10;100.00
12763;BME280;6445;52.490;13.378;2024-03-22T05:47:22;37489.06;;;-146.10;100.00
12763;BME280;6445;52.490;13.378;2024-03-22T05:49:47;37794.03;;;-146.10;100.00
12763;BME280;6445;52.490;13.378;2024-03-22T05:52:12;37734.25;;;-146.10;100.00
12763;BME280;6445;52.490;13.378;2024-03-22T05:54:38;40290.44;;;-146.10;100.00
12763;BME280;6445;52.490;13.378;2024-03-22T05:57:03;42646.72;;;-146.10;100.00
12763;BME280;6445;52.490;13.378;2024-03-22T05:59:30;41726.78;;;-146.10;100.00
12763;BME280;6445;52.490;13.378;2024-03-22T06:01:55;48180.88;;;-146.10;100.00
12763;BME280;6445;52.490;13.378;2024-03-22T06:04:20;47329.56;;;-146.10;100.00
12763;BME280;6445;52.490;13.378;2024-03-22T06:06:46;49194.28;;;-146.10;100.00
12763;BME280;6445;52.490;13.378;2024-03-22T06:09:11;50593.88;;;-146.10;100.00
12763;BME280;6445;52.490;13.378;2024-03-22T06:11:38;50281.91;;;-146.10;100.00
12763;BME280;6445;52.490;13.378;2024-03-22T06:14:03;51237.84;;;-146.10;100.00
12763;BME280;6445;52.490;13.378;2024-03-22T06:16:29;52854.28;;;-146.10;100.00
12763;BME280;6445;52.490;13.378;2024-03-22T06:18:54;53954.94;;;-146.10;100.00
12763;BME280;6445;52.490;13.378;2024-03-22T06:21:19;54315.22;;;-146.10;100.00
12763;BME280;6445;52.490;13.378;2024-03-22T06:23:49;54195.13;;;-146.10;100.00
12763;BME280;6445;52.490;13.378;2024-03-22T06:26:14;55636.53;;;-146.10;100.00
12763;BME280;6445;52.490;13.378;2024-03-22T06:28:39;56547.69;;;-146.10;100.00
12763;BME280;6445;52.490;13.378;2024-03-22T06:31:04;57194.66;;;-146.10;100.00
12763;BME280;6445;52.490;13.378;2024-03-22T06:33:30;57639.38;;;-146.10;100.00
12763;BME280;6445;52.490;13.378;2024-03-22T06:35:55;58312.56;;;-146.10;100.00
12763;BME280;6445;52.490;13.378;2024-03-22T06:38:20;58867.63;;;-146.10;100.00
12763;BME280;6445;52.490;13.378;2024-03-22T06:40:45;59448.81;;;-146.10;100.00
12763;BME280;6445;52.490;13.378;2024-03-22T06:43:11;59326.53;;;-146.10;100.00
12763;BME280;6445;52.490;13.378;2024-03-22T06:45:36;60210.50;;;-146.10;100.00
12763;BME280;6445;52.490;13.378;2024-03-22T06:48:01;60138.31;;;-146.10;100.00
12763;BME280;6445;52.490;13.378;2024-03-22T06:50:27;60896.13;;;-146.10;100.00
12763;BME280;6445;52.490;13.378;2024-03-22T06:52:53;62095.31;;;-146.10;100.00
12763;BME280;6445;52.490;13.378;2024-03-22T06:55:22;62077.25;;;-146.10;100.00
12763;BME280;6445;52.490;13.378;2024-03-22T06:57:48;62293.88;;;-146.10;100.00
12763;BME280;6445;52.490;13.378;2024-03-22T07:00:14;62372.09;;;-146.10;100.00
12763;BME280;6445;52.490;13.378;2024-03-22T07:02:40;62646.88;;;-146.10;100.00
12763;BME280;6445;52.490;13.378;2024-03-22T07:05:08;62971.84;;;-146.10;100.00
12763;BME280;6445;52.490;13.378;2024-03-22T07:07:34;62893.59;;;-146.10;100.00
12763;BME280;6445;52.490;13.378;2024-03-22T07:10:00;62799.31;;;-146.10;100.00
12763;BME280;6445;52.490;13.378;2024-03-22T07:12:25;62051.19;;;-146.10;100.00
12763;BME280;6445;52.490;13.378;2024-03-22T07:14:50;61968.94;;;-146.10;100.00
12763;BME280;6445;52.490;13.378;2024-03-22T07:17:16;62189.56;;;-146.10;100.00
12763;BME280;6445;52.490;13.378;2024-03-22T07:19:41;63258.72;;;-146.10;100.00
12763;BME280;6445;52.490;13.378;2024-03-22T07:22:06;63304.84;;;-146.10;100.00
12763;BME280;6445;52.490;13.378;2024-03-22T07:24:32;64659.28;;;-146.10;100.00
12763;BME280;6445;52.490;13.378;2024-03-22T07:26:57;64570.97;;;-146.10;100.00
12763;BME280;6445;52.490;13.378;2024-03-22T07:29:22;65321.59;;;-146.10;100.00
12763;BME280;6445;52.490;13.378;2024-03-22T07:31:47;65187.13;;;-146.10;100.00
12763;BME280;6445;52.490;13.378;2024-03-22T07:34:13;65317.59;;;-146.10;100.00
12763;BME280;6445;52.490;13.378;2024-03-22T07:36:39;66859.44;;;-146.10;100.00
12763;BME280;6445;52.490;13.378;2024-03-22T07:39:04;67761.13;;;-146.10;100.00
12763;BME280;6445;52.490;13.378;2024-03-22T07:41:33;68092.53;;;-146.10;100.00
12763;BME280;6445;52.490;13.378;2024-03-22T07:43:59;70051.41;;;-146.10;100.00
12763;BME280;6445;52.490;13.378;2024-03-22T07:46:25;70642.28;;;-146.10;100.00
12763;BME280;6445;52.490;13.378;2024-03-22T07:48:51;71496.56;;;-146.10;100.00
12763;BME280;6445;52.490;13.378;2024-03-22T07:51:16;70557.84;;;-146.10;100.00
12763;BME280;6445;52.490;13.378;2024-03-22T07:53:41;70437.25;;;-146.10;100.00
12763;BME280;6445;52.490;13.378;2024-03-22T07:56:06;69020.63;;;-146.10;100.00
12763;BME280;6445;52.490;13.378;2024-03-22T07:58:31;70664.38;;;-146.10;100.00
12763;BME280;6445;52.490;13.378;2024-03-22T08:00:57;69916.75;;;-146.10;100.00
12763;BME280;6445;52.490;13.378;2024-03-22T08:03:22;69137.13;;;-146.10;100.00
12763;BME280;6445;52.490;13.378;2024-03-22T08:05:48;68986.47;;;-146.10;100.00
12763;BME280;6445;52.490;13.378;2024-03-22T08:08:14;69289.84;;;-146.10;100.00
12763;BME280;6445;52.490;13.378;2024-03-22T08:10:39;68038.28;;;-146.10;100.00
12763;BME280;6445;52.490;13.378;2024-03-22T08:13:04;66395.59;;;-146.10;100.00
12763;BME280;6445;52.490;13.378;2024-03-22T08:15:30;67311.25;;;-146.10;100.00
12763;BME280;6445;52.490;13.378;2024-03-22T08:17:55;68648.94;;;-146.10;100.00
12763;BME280;6445;52.490;13.378;2024-03-22T08:20:22;68900.06;;;-146.10;100.00
12763;BME280;6445;52.490;13.378;2024-03-22T08:22:48;70525.69;;;-146.10;100.00
12763;BME280;6445;52.490;13.378;2024-03-22T08:25:13;70501.59;;;-146.10;100.00
12763;BME280;6445;52.490;13.378;2024-03-22T08:27:42;68839.81;;;-146.10;100.00
12763;BME280;6445;52.490;13.378;2024-03-22T08:30:07;69058.78;;;-146.10;100.00
12763;BME280;6445;52.490;13.378;2024-03-22T08:32:34;68811.69;;;-146.10;100.00
12763;BME280;6445;52.490;13.378;2024-03-22T08:34:59;70381.00;;;-146.10;100.00
12763;BME280;6445;52.490;13.378;2024-03-22T08:37:25;71174.94;;;-146.10;100.00
12763;BME280;6445;52.490;13.378;2024-03-22T08:39:51;70664.38;;;-146.10;100.00
12763;BME280;6445;52.490;13.378;2024-03-22T08:42:16;71627.25;;;-146.10;100.00
12763;BME280;6445;52.490;13.378;2024-03-22T08:44:41;72393.28;;;-146.10;100.00
12763;BME280;6445;52.490;13.378;2024-03-22T08:47:07;71669.47;;;-146.10;100.00
12763;BME280;6445;52.490;13.378;2024-03-22T08:49:33;69900.69;;;-146.10;100.00
12763;BME280;6445;52.490;13.378;2024-03-22T08:51:58;70196.09;;;-146.10;100.00
12763;BME280;6445;52.490;13.378;2024-03-22T08:54:23;69251.66;;;-146.10;100.00
12763;BME280;6445;52.490;13.378;2024-03-22T08:56:48;70662.38;;;-146.10;100.00
12763;BME280;6445;52.490;13.378;2024-03-22T08:59:14;70182.03;;;-146.10;100.00
12763;BME280;6445;52.490;13.378;2024-03-22T09:01:39;69412.41;;;-146.10;100.00
12763;BME280;6445;52.490;13.378;2024-03-22T09:04:04;69693.72;;;-146.10;100.00
12763;BME280;6445;52.490;13.378;2024-03-22T09:06:29;69723.84;;;-146.10;100.00
12763;BME280;6445;52.490;13.378;2024-03-22T09:08:55;71540.78;;;-146.10;100.00
12763;BME280;6445;52.490;13.378;2024-03-22T09:11:23;68789.56;;;-146.10;100.00
12763;BME280;6445;52.490;13.378;2024-03-22T09:13:51;68080.47;;;-146.10;100.00
12763;BME280;6445;52.490;13.378;2024-03-22T09:16:16;68847.84;;;-146.10;100.00
12763;BME280;6445;52.490;13.378;2024-03-22T09:18:42;67682.78;;;-146.10;100.00
12763;BME280;6445;52.490;13.378;2024-03-22T09:21:07;65120.88;;;-146.10;98.80
12763;BME280;6445;52.490;13.378;2024-03-22T09:23:34;65490.22;;;-146.10;98.19
12763;BME280;6445;52.490;13.378;2024-03-22T09:25:59;65265.41;;;-146.10;97.95
12763;BME280;6445;52.490;13.378;2024-03-22T09:28:24;65407.91;;;-146.10;97.62
12763;BME280;6445;52.490;13.378;2024-03-22T09:30:49;66469.91;;;-146.10;98.15
12763;BME280;6445;52.490;13.378;2024-03-22T09:33:15;65676.91;;;-146.10;97.38
12763;BME280;6445;52.490;13.378;2024-03-22T09:35:41;65881.66;;;-146.10;97.63
12763;BME280;6445;52.490;13.378;2024-03-22T09:38:06;65369.78;;;-146.10;97.06
12763;BME280;6445;52.490;13.378;2024-03-22T09:40:34;65399.88;;;-146.10;96.54
12763;BME280;6445;52.490;13.378;2024-03-22T09:43:01;63425.22;;;-146.10;95.29
12763;BME280;6445;52.490;13.378;2024-03-22T09:45:31;64185.69;;;-146.10;95.77
12763;BME280;6445;52.490;13.378;2024-03-22T09:47:56;63950.91;;;-146.10;95.08
12763;BME280;6445;52.490;13.378;2024-03-22T09:50:23;66361.47;;;-146.10;96.70
12763;BME280;6445;52.490;13.378;2024-03-22T09:52:48;66809.22;;;-146.10;96.73
12763;BME280;6445;52.490;13.378;2024-03-22T09:55:16;65969.97;;;-146.10;96.11
12763;BME280;6445;52.490;13.378;2024-03-22T09:57:42;67401.63;;;-146.10;96.68
12763;BME280;6445;52.490;13.378;2024-03-22T10:00:10;67040.16;;;-146.10;96.48
12763;BME280;6445;52.490;13.378;2024-03-22T10:02:39;65905.75;;;-146.10;95.65
12763;BME280;6445;52.490;13.378;2024-03-22T10:05:05;65124.91;;;-146.10;95.13
12763;BME280;6445;52.490;13.378;2024-03-22T10:07:31;65038.59;;;-146.10;95.24
12763;BME280;6445;52.490;13.378;2024-03-22T10:10:00;65532.38;;;-146.10;95.20
12763;BME280;6445;52.490;13.378;2024-03-22T10:12:25;62602.75;;;-146.10;93.12
12763;BME280;6445;52.490;13.378;2024-03-22T10:14:52;63975.00;;;-146.10;94.33
12763;BME280;6445;52.490;13.378;2024-03-22T10:17:18;61672.16;;;-146.10;92.38
12763;BME280;6445;52.490;13.378;2024-03-22T10:19:43;61648.09;;;-146.10;92.07
12763;BME280;6445;52.490;13.378;2024-03-22T10:22:08;61559.84;;;-146.10;92.05
12763;BME280;6445;52.490;13.378;2024-03-22T10:24:33;60745.78;;;-146.10;91.44
12763;BME280;6445;52.490;13.378;2024-03-22T10:26:59;60487.16;;;-146.10;91.06
12763;BME280;6445;52.490;13.378;2024-03-22T10:29:25;61383.38;;;-146.10;91.56
12763;BME280;6445;52.490;13.378;2024-03-22T10:31:52;59258.41;;;-146.10;89.89
12763;BME280;6445;52.490;13.378;2024-03-22T10:34:17;59214.31;;;-146.10;89.89
12763;BME280;6445;52.490;13.378;2024-03-22T10:36:43;59424.75;;;-146.10;89.64
12763;BME280;6445;52.490;13.378;2024-03-22T10:39:10;60300.69;;;-146.10;90.57
12763;BME280;6445;52.490;13.378;2024-03-22T10:41:37;59769.50;;;-146.10;89.83
12763;BME280;6445;52.490;13.378;2024-03-22T10:44:03;59356.59;;;-146.10;89.37
12763;BME280;6445;52.490;13.378;2024-03-22T10:46:30;56471.59;;;-146.10;86.27
12763;BME280;6445;52.490;13.378;2024-03-22T10:48:56;55726.63;;;-146.10;84.86
12763;BME280;6445;52.490;13.378;2024-03-22T10:51:23;54097.03;;;-146.10;81.70
12763;BME280;6445;52.490;13.378;2024-03-22T10:53:50;53730.78;;;-146.10;80.95
12763;BME280;6445;52.490;13.378;2024-03-22T10:56:16;53360.53;;;-146.10;79.21
12763;BME280;6445;52.490;13.378;2024-03-22T10:58:42;53010.34;;;-146.10;77.68
12763;BME280;6445;52.490;13.378;2024-03-22T11:01:24;53040.38;;;-146.10;77.95
12763;BME280;6445;52.490;13.378;2024-03-22T11:03:50;53102.41;;;-146.10;78.34
12763;BME280;6445;52.490;13.378;2024-03-22T11:06:19;53176.44;;;-146.10;78.79
12763;BME280;6445;52.490;13.378;2024-03-22T11:08:49;53118.41;;;-146.10;77.99
12763;BME280;6445;52.490;13.378;2024-03-22T11:11:17;53150.41;;;-146.10;78.21
12763;BME280;6445;52.490;13.378;2024-03-22T11:13:43;53044.38;;;-146.10;77.93
12763;BME280;6445;52.490;13.378;2024-03-22T11:16:09;53066.38;;;-146.10;77.70
12763;BME280;6445;52.490;13.378;2024-03-22T11:18:35;53128.41;;;-146.10;78.51
12763;BME280;6445;52.490;13.378;2024-03-22T11:21:00;53082.38;;;-146.10;77.77
12763;BME280;6445;52.490;13.378;2024-03-22T11:23:25;53130.41;;;-146.10;78.21
12763;BME280;6445;52.490;13.378;2024-03-22T11:25:50;53104.41;;;-146.10;78.31
12763;BME280;6445;52.490;13.378;2024-03-22T11:28:16;53356.53;;;-146.10;79.20
12763;BME280;6445;52.490;13.378;2024-03-22T11:30:41;53488.63;;;-146.10;79.83
12763;BME280;6445;52.490;13.378;2024-03-22T11:33:07;53696.75;;;-146.10;80.19
12763;BME280;6445;52.490;13.378;2024-03-22T11:35:33;54039.00;;;-146.10;81.51
12763;BME280;6445;52.490;13.378;2024-03-22T11:37:59;54301.19;;;-146.10;81.96
12763;BME280;6445;52.490;13.378;2024-03-22T11:40:28;54637.50;;;-146.10;82.64
12763;BME280;6445;52.490;13.378;2024-03-22T11:42:55;54833.69;;;-146.10;82.96
12763;BME280;6445;52.490;13.378;2024-03-22T11:45:21;54989.84;;;-146.10;83.25
12763;BME280;6445;52.490;13.378;2024-03-22T11:47:48;55043.88;;;-146.10;83.35
12763;BME280;6445;52.490;13.378;2024-03-22T11:50:13;55462.34;;;-146.10;84.12
12763;BME280;6445;52.490;13.378;2024-03-22T11:52:43;56932.25;;;-146.10;86.00
12763;BME280;6445;52.490;13.378;2024-03-22T11:55:10;58272.47;;;-146.10;87.40
12763;BME280;6445;52.490;13.378;2024-03-22T11:57:35;58969.81;;;-146.10;87.88
12763;BME280;6445;52.490;13.378;2024-03-22T12:00:02;60238.56;;;-146.10;88.75
12763;BME280;6445;52.490;13.378;2024-03-22T12:02:31;61335.25;;;-146.10;89.70
12763;BME280;6445;52.490;13.378;2024-03-22T12:04:57;64665.28;;;-146.10;91.40
12763;BME280;6445;52.490;13.378;2024-03-22T12:07:23;72306.81;;;-146.10;95.49
12763;BME280;6445;52.490;13.378;2024-03-22T12:09:48;80327.63;;;-146.10;98.41
12763;BME280;6445;52.490;13.378;2024-03-22T12:12:14;84197.81;;;-146.10;99.96
12763;BME280;6445;52.490;13.378;2024-03-22T12:14:39;88071.75;;;-146.10;100.00
12763;BME280;6445;52.490;13.378;2024-03-22T12:17:06;94019.06;;;-146.10;100.00
12763;BME280;6445;52.490;13.378;2024-03-22T12:19:31;98161.47;;;-146.10;100.00
12763;BME280;6445;52.490;13.378;2024-03-22T12:21:57;102308.09;;;-146.10;100.00
12763;BME280;6445;52.490;13.378;2024-03-22T12:24:23;105161.41;;;-146.10;100.00